Main page
METAR-TAF:

METAR-TAF

Airports :

Longana Airport

Aoba Island, Vanuatu

latitude: 15-18-24S, longitude: 167-58-02E, elevation: 51 m

Current weather observation

The report was made 1 hour and 0 minutes ago, at 23:00 UTC
Wind 4 kt from the South/Southeast
Temperature 29°C
Humidity 70%
Pressure 1012 hPa

METAR: NVSG 212300Z AUTO 16004KT //// // NCD 29/23 Q1012

Time: 11:00 (00:00 UTC)

Forecast

The report was made 1 hour and 40 minutes ago, at 22:20 UTC
Forecast valid from 22 at 00 UTC to 22 at 24 UTC
Wind 6 kt from the South/Southeast
Visibility: 9000 m
Broken clouds at a height of 2000 ft
Overcast at a height of 4000 ft
Broken clouds at a height of 1800 ft
light rain showers

TAF: NVSG 212220Z 2200/2224 16006KT 9999 BKN020 OVC040 INTER 2200/2206 9000 -SHRA BKN018

Weather observations and forecasts of more than 4000 airports (METAR and TAF reports).

The available stations are represented by yellow and red dots on the map.

Hover mouse over dot to see the name of the station.

Then click to see weather observations and forecasts.

To change the map : click on the green buttons with a black cross to zoom in, on the green button with a dash to zoom out, or on the green arrows for adjacent maps.


METAR-TAF: